Time;durP1;ratioP1;P1;durP2;ratioP2;P2;SDS_P1;SDS_P2;PMS_P1;PMS_P2;Temp;Humidity;BMP_temperature;BMP_pressure;BME280_temperature;BME280_humidity;BME280_pressure;Samples;Min_cycle;Max_cycle;Signal;HPM_P1;HPM_P2
2023/10/31 00:00:50;;;;;;;3.60;2.00;;;;;;;14.79;100.00;100711.50;106218;1254;72594;-88
2023/10/31 00:03:24;;;;;;;4.20;2.00;;;;;;;14.79;100.00;100709.90;106650;1255;67631;-88
2023/10/31 00:05:52;;;;;;;6.80;2.50;;;;;;;14.76;100.00;100708.19;107117;1257;71474;-89
2023/10/31 00:08:22;;;;;;;4.70;2.00;;;;;;;14.73;100.00;100705.05;106202;1255;60488;-90
2023/10/31 00:10:56;;;;;;;3.50;1.60;;;;;;;14.69;100.00;100700.98;106141;1253;59186;-85
2023/10/31 00:13:23;;;;;;;5.40;1.80;;;;;;;14.62;100.00;100696.70;106211;1257;73830;-85
2023/10/31 00:15:57;;;;;;;5.40;2.50;;;;;;;14.53;100.00;100694.69;106705;1253;67605;-86
2023/10/31 00:18:31;;;;;;;11.30;4.30;;;;;;;14.45;100.00;100695.80;106107;1256;72714;-85
2023/10/31 00:21:05;;;;;;;13.60;5.00;;;;;;;14.40;100.00;100698.34;106230;1253;60459;-85
2023/10/31 00:23:33;;;;;;;9.60;4.10;;;;;;;14.36;100.00;100695.94;106248;1253;60531;-85
2023/10/31 00:26:05;;;;;;;8.60;3.60;;;;;;;14.29;100.00;100692.30;106704;1253;72598;-86
2023/10/31 00:28:40;;;;;;;10.70;3.60;;;;;;;14.26;100.00;100693.13;106268;1258;67305;-85
2023/10/31 00:31:14;;;;;;;6.30;2.40;;;;;;;14.21;100.00;100692.59;106116;1253;72777;-85
2023/10/31 00:33:43;;;;;;;5.40;2.30;;;;;;;14.14;100.00;100685.27;106385;1254;61688;-89
2023/10/31 00:36:13;;;;;;;7.80;2.80;;;;;;;14.10;100.00;100682.30;106291;1253;61033;-90
2023/10/31 00:38:40;;;;;;;4.40;2.00;;;;;;;14.08;100.00;100676.95;106910;1257;72791;-90
2023/10/31 00:41:08;;;;;;;7.80;2.60;;;;;;;14.04;100.00;100677.61;106299;1253;66133;-86
2023/10/31 00:43:36;;;;;;;5.50;2.40;;;;;;;13.99;100.00;100675.44;106218;1259;71475;-86
2023/10/31 00:46:06;;;;;;;5.20;1.90;;;;;;;13.94;100.00;100674.52;106609;1253;61667;-90
2023/10/31 00:48:40;;;;;;;2.90;2.00;;;;;;;13.90;100.00;100674.84;106163;1254;60423;-89
2023/10/31 00:51:09;;;;;;;8.00;2.60;;;;;;;13.86;100.00;100679.52;106238;1259;73857;-86
2023/10/31 00:53:37;;;;;;;4.20;2.20;;;;;;;13.82;100.00;100677.09;106304;1254;68410;-90
2023/10/31 00:56:18;;;;;;;6.30;1.90;;;;;;;13.80;100.00;100676.30;106179;1256;72671;-86
2023/10/31 00:58:46;;;;;;;6.70;2.40;;;;;;;13.78;100.00;100676.16;106896;1254;61620;-90
2023/10/31 01:01:14;;;;;;;4.50;2.00;;;;;;;13.72;100.00;100671.36;106315;1254;60358;-90
2023/10/31 01:03:42;;;;;;;4.50;1.80;;;;;;;13.66;100.00;100673.45;106186;1254;72645;-87
2023/10/31 01:06:16;;;;;;;2.90;1.90;;;;;;;13.62;100.00;100679.83;106452;1254;68473;-90
2023/10/31 01:08:45;;;;;;;5.40;2.00;;;;;;;13.53;100.00;100678.13;107010;1254;71398;-86
2023/10/31 01:11:19;;;;;;;6.10;2.20;;;;;;;13.52;100.00;100677.26;106253;1256;60526;-86
2023/10/31 01:13:47;;;;;;;4.20;2.00;;;;;;;13.49;100.00;100672.63;106204;1257;60368;-86
2023/10/31 01:16:17;;;;;;;3.60;2.20;;;;;;;13.44;100.00;100666.21;106306;1253;72705;-86
2023/10/31 01:18:45;;;;;;;5.30;2.20;;;;;;;13.41;100.00;100667.73;107065;1257;67419;-86
2023/10/31 01:21:13;;;;;;;4.70;2.00;;;;;;;13.39;100.00;100667.91;106401;1254;71398;-86
2023/10/31 01:23:47;;;;;;;7.50;2.60;;;;;;;13.35;100.00;100660.84;106250;1254;59183;-86
2023/10/31 01:26:15;;;;;;;8.30;3.10;;;;;;;13.32;100.00;100659.38;106262;1253;60553;-86
2023/10/31 01:28:43;;;;;;;5.30;2.30;;;;;;;13.27;100.00;100661.13;106136;1253;73766;-86
2023/10/31 01:31:11;;;;;;;6.80;2.70;;;;;;;13.27;100.00;100661.91;107056;1253;68367;-86
2023/10/31 01:33:39;;;;;;;6.50;2.80;;;;;;;13.27;100.00;100654.88;106305;1257;71785;-90
2023/10/31 01:36:07;;;;;;;7.00;2.20;;;;;;;13.26;100.00;100657.13;106295;1254;60451;-85
2023/10/31 01:38:35;;;;;;;6.30;2.70;;;;;;;13.26;100.00;100656.41;106417;1253;60501;-85
2023/10/31 01:41:10;;;;;;;9.30;3.20;;;;;;;13.27;100.00;100654.34;106800;1259;72947;-85
2023/10/31 01:43:44;;;;;;;5.70;2.50;;;;;;;13.29;100.00;100653.92;106206;1256;68457;-85
2023/10/31 01:46:15;;;;;;;8.90;2.50;;;;;;;13.27;100.00;100651.77;106175;1256;72649;-86
2023/10/31 01:48:47;;;;;;;6.40;2.60;;;;;;;13.24;100.00;100650.11;106252;1256;60825;-87
2023/10/31 01:51:19;;;;;;;5.80;2.00;;;;;;;13.26;100.00;100644.69;106595;1255;60575;-86
2023/10/31 01:53:55;;;;;;;4.70;2.50;;;;;;;13.27;100.00;100639.50;106083;1259;73855;-89
2023/10/31 01:56:25;;;;;;;4.50;2.10;;;;;;;13.27;100.00;100636.88;106409;1254;68489;-85
2023/10/31 01:58:57;;;;;;;6.30;2.40;;;;;;;13.29;100.00;100636.10;106353;1253;72674;-85
2023/10/31 02:01:41;;;;;;;7.10;2.30;;;;;;;13.32;100.00;100633.15;107575;1256;61691;-85
2023/10/31 02:04:09;;;;;;;6.10;2.10;;;;;;;13.32;100.00;100625.67;106345;1259;60411;-85
2023/10/31 02:06:37;;;;;;;5.90;2.40;;;;;;;13.32;100.00;100623.70;106340;1253;72557;-86
2023/10/31 02:09:09;;;;;;;5.80;2.20;;;;;;;13.34;100.00;100622.15;106299;1257;67696;-85
2023/10/31 02:11:39;;;;;;;7.30;2.30;;;;;;;13.42;100.00;100620.69;106754;1253;72657;-86
2023/10/31 02:14:12;;;;;;;3.80;1.90;;;;;;;13.44;100.00;100623.02;106415;1254;61657;-86
2023/10/31 02:16:44;;;;;;;7.10;2.20;;;;;;;13.46;100.00;100631.60;106277;1257;60523;-89
2023/10/31 02:19:21;;;;;;;6.60;2.20;;;;;;;13.46;100.00;100634.46;106064;1260;72883;-89
2023/10/31 02:21:49;;;;;;;9.30;2.20;;;;;;;13.46;100.00;100633.91;106242;1254;68405;-89
2023/10/31 02:24:20;;;;;;;4.80;2.20;;;;;;;13.48;100.00;100630.81;106889;1254;72658;-89
2023/10/31 02:26:55;;;;;;;4.20;2.20;;;;;;;13.50;100.00;100629.90;106183;1259;60529;-89
2023/10/31 02:29:26;;;;;;;6.60;1.90;;;;;;;13.50;100.00;100636.28;106279;1254;60585;-86
2023/10/31 02:31:58;;;;;;;4.60;2.10;;;;;;;13.49;100.00;100644.13;106204;1257;72311;-86
2023/10/31 02:34:30;;;;;;;7.80;2.80;;;;;;;13.52;100.00;100648.04;107040;1254;68770;-90
2023/10/31 02:37:02;;;;;;;6.40;1.60;;;;;;;13.57;100.00;100649.64;106163;1254;71049;-86
2023/10/31 02:39:35;;;;;;;5.90;1.90;;;;;;;13.58;100.00;100645.73;106510;1254;60414;-90
2023/10/31 02:42:07;;;;;;;5.90;2.00;;;;;;;13.55;100.00;100642.64;106237;1254;60345;-89
2023/10/31 02:44:39;;;;;;;4.30;2.20;;;;;;;13.48;100.00;100643.00;106915;1259;73879;-89
2023/10/31 02:47:13;;;;;;;5.70;2.40;;;;;;;13.46;100.00;100647.27;106118;1256;69201;-86
2023/10/31 02:49:46;;;;;;;3.40;2.20;;;;;;;13.45;100.00;100644.19;106495;1253;72620;-86
2023/10/31 02:52:18;;;;;;;4.00;2.10;;;;;;;13.44;100.00;100639.15;106240;1254;61916;-86
2023/10/31 02:54:51;;;;;;;5.50;2.00;;;;;;;13.42;100.00;100642.03;106671;1257;60371;-87
2023/10/31 02:57:22;;;;;;;5.50;2.10;;;;;;;13.42;100.00;100643.68;106161;1254;72924;-86
2023/10/31 02:59:55;;;;;;;4.40;1.90;;;;;;;13.41;100.00;100640.29;106251;1253;68710;-86
2023/10/31 03:02:27;;;;;;;3.50;1.90;;;;;;;13.41;100.00;100635.14;106162;1254;72689;-86
2023/10/31 15:05:18;;;;;;;10.60;3.90;;;;;;;21.16;72.29;100359.98;106661;1254;60618;-86
2023/10/31 15:07:46;;;;;;;9.80;4.30;;;;;;;21.05;73.57;100366.73;106790;1254;60928;-86
2023/10/31 15:10:28;;;;;;;10.60;4.70;;;;;;;20.93;75.25;100364.06;106436;1253;76082;-86
2023/10/31 15:13:02;;;;;;;12.80;4.80;;;;;;;20.85;77.20;100356.05;106533;1254;66621;-86
2023/10/31 15:15:45;;;;;;;11.10;5.00;;;;;;;20.74;78.80;100352.77;106404;1255;72644;-86
2023/10/31 15:18:13;;;;;;;10.90;5.20;;;;;;;20.59;81.94;100349.10;106939;1254;60626;-87
2023/10/31 15:20:47;;;;;;;12.90;4.20;;;;;;;20.55;85.06;100349.46;106435;1253;60414;-86
2023/10/31 15:23:26;;;;;;;13.10;4.80;;;;;;;20.56;88.10;100345.35;106355;1257;75121;-86
2023/10/31 15:26:00;;;;;;;15.40;5.20;;;;;;;20.53;89.76;100339.29;106387;1260;71555;-88
2023/10/31 15:28:39;;;;;;;12.40;4.90;;;;;;;20.52;90.66;100340.98;106988;1254;75226;-87
2023/10/31 15:31:16;;;;;;;15.90;5.30;;;;;;;20.56;92.10;100343.30;106394;1253;60774;-87
2023/10/31 15:33:51;;;;;;;13.90;5.40;;;;;;;20.58;93.36;100340.89;106350;1253;60947;-87
2023/10/31 15:36:26;;;;;;;14.70;5.60;;;;;;;20.55;94.49;100339.77;106382;1254;73416;-86
2023/10/31 15:38:54;;;;;;;22.00;6.90;;;;;;;20.57;95.26;100343.25;106927;1259;70911;-86
2023/10/31 15:41:27;;;;;;;14.40;6.30;;;;;;;20.58;96.01;100345.11;106479;1254;74483;-85
2023/10/31 15:44:02;;;;;;;20.20;7.60;;;;;;;20.63;97.62;100341.45;106394;1254;62122;-85
2023/10/31 15:46:36;;;;;;;19.60;7.70;;;;;;;20.67;100.00;100337.19;106225;1254;61064;-87
2023/10/31 15:49:05;;;;;;;15.50;5.90;;;;;;;20.74;100.00;100334.22;107005;1257;75537;-86
2023/10/31 15:51:34;;;;;;;14.40;7.00;;;;;;;20.78;100.00;100329.76;106399;1254;68815;-86
2023/10/31 15:54:15;;;;;;;15.40;6.20;;;;;;;20.78;100.00;100325.95;106337;1254;73840;-86
2023/10/31 15:56:43;;;;;;;12.60;5.90;;;;;;;20.80;100.00;100323.60;106077;1254;61661;-87
2023/10/31 15:59:13;;;;;;;13.70;6.20;;;;;;;20.83;100.00;100325.45;107498;1257;60448;-87
2023/10/31 16:01:47;;;;;;;14.60;5.80;;;;;;;20.90;100.00;100327.23;107109;1254;74834;-86
2023/10/31 16:04:23;;;;;;;13.00;5.60;;;;;;;20.93;100.00;100328.44;107050;1257;68952;-86
2023/10/31 16:06:52;;;;;;;12.30;5.30;;;;;;;20.95;100.00;100332.15;106719;1254;73401;-86
2023/10/31 16:09:28;;;;;;;13.40;5.30;;;;;;;20.92;100.00;100333.27;106300;1259;62732;-86
2023/10/31 16:11:56;;;;;;;14.00;5.80;;;;;;;20.87;100.00;100333.58;106666;1261;61569;-86
2023/10/31 16:14:26;;;;;;;14.90;5.20;;;;;;;20.82;100.00;100331.23;106571;1259;74994;-86
2023/10/31 16:16:57;;;;;;;11.40;5.00;;;;;;;20.82;100.00;100332.48;106320;1254;71069;-86
2023/10/31 16:19:24;;;;;;;14.70;5.10;;;;;;;20.91;100.00;100329.25;107356;1257;75061;-86
2023/10/31 16:22:02;;;;;;;12.90;5.70;;;;;;;20.91;100.00;100326.88;106567;1254;62612;-86
2023/10/31 16:24:30;;;;;;;11.80;4.70;;;;;;;20.85;100.00;100323.98;107475;1253;62208;-86
2023/10/31 16:27:05;;;;;;;13.10;5.00;;;;;;;20.83;100.00;100320.45;106437;1254;75753;-86
2023/10/31 16:29:46;;;;;;;12.10;5.00;;;;;;;20.87;100.00;100321.68;106463;1258;69437;-87
2023/10/31 16:32:20;;;;;;;16.70;5.70;;;;;;;20.85;100.00;100318.29;106465;1254;74796;-84
2023/10/31 16:34:51;;;;;;;12.00;6.00;;;;;;;20.77;100.00;100321.21;106770;1254;60474;-86
2023/10/31 16:37:25;;;;;;;18.70;6.00;;;;;;;20.74;100.00;100315.98;106237;1254;62454;-87
2023/10/31 16:39:59;;;;;;;16.80;5.50;;;;;;;20.68;100.00;100317.52;106425;1254;75229;-87
2023/10/31 16:42:32;;;;;;;14.70;5.70;;;;;;;20.65;100.00;100310.71;106337;1259;70097;-88
2023/10/31 16:45:00;;;;;;;12.00;5.30;;;;;;;20.70;100.00;100301.82;107409;1253;73571;-87
2023/10/31 16:47:36;;;;;;;13.10;5.10;;;;;;;20.75;100.00;100301.57;106575;1254;62075;-87
2023/10/31 16:50:10;;;;;;;13.60;5.60;;;;;;;20.77;100.00;100301.00;106429;1254;60892;-89
2023/10/31 16:52:44;;;;;;;17.40;6.20;;;;;;;20.76;100.00;100296.91;106656;1253;76319;-89
2023/10/31 16:55:12;;;;;;;11.30;6.00;;;;;;;20.77;100.00;100295.29;106468;1257;71320;-87
2023/10/31 16:57:47;;;;;;;15.80;5.70;;;;;;;20.73;100.00;100298.12;106417;1253;74199;-87
2023/10/31 17:00:21;;;;;;;17.60;6.40;;;;;;;20.67;100.00;100297.35;106408;1254;62330;-88
2023/10/31 17:02:51;;;;;;;20.20;6.80;;;;;;;20.63;100.00;100294.86;107523;1254;61011;-89
2023/10/31 17:05:20;;;;;;;14.90;6.30;;;;;;;20.56;100.00;100290.39;106612;1254;74960;-88
2023/10/31 17:07:55;;;;;;;11.90;5.90;;;;;;;20.52;100.00;100284.30;106436;1257;68419;-88
2023/10/31 17:10:32;;;;;;;16.80;6.40;;;;;;;20.45;100.00;100283.35;106502;1253;73891;-87
2023/10/31 17:12:59;;;;;;;15.30;6.50;;;;;;;20.43;100.00;100283.70;107564;1258;61358;-88
2023/10/31 17:15:33;;;;;;;18.20;6.30;;;;;;;20.40;100.00;100281.38;106460;1254;61564;-90
2023/10/31 17:18:01;;;;;;;15.70;7.00;;;;;;;20.34;100.00;100279.14;106551;1256;74923;-87
2023/10/31 17:20:37;;;;;;;15.30;7.60;;;;;;;20.31;100.00;100272.87;106505;1254;72158;-87
2023/10/31 17:23:11;;;;;;;16.80;6.90;;;;;;;20.31;100.00;100271.20;106866;1253;74969;-87
2023/10/31 17:25:47;;;;;;;14.90;7.80;;;;;;;20.27;100.00;100268.69;106394;1254;60658;-87
2023/10/31 17:28:15;;;;;;;16.40;7.70;;;;;;;20.29;100.00;100263.05;106503;1255;62282;-87
2023/10/31 17:30:57;;;;;;;14.20;7.40;;;;;;;20.31;100.00;100258.70;106547;1256;74787;-85
2023/10/31 17:33:34;;;;;;;17.40;9.00;;;;;;;20.30;100.00;100256.91;106513;1253;70469;-86
2023/10/31 17:36:10;;;;;;;16.60;7.30;;;;;;;20.31;100.00;100258.13;107151;1257;75588;-86
2023/10/31 17:38:44;;;;;;;15.40;7.00;;;;;;;20.33;100.00;100256.61;106683;1255;62329;-84
2023/10/31 17:41:12;;;;;;;16.90;8.40;;;;;;;20.36;100.00;100255.48;106492;1256;62077;-85
2023/10/31 17:43:46;;;;;;;18.10;8.30;;;;;;;20.38;100.00;100256.68;106908;1255;73370;-86
2023/10/31 17:46:18;;;;;;;20.80;9.10;;;;;;;20.38;100.00;100254.13;106569;1259;71672;-85
2023/10/31 17:48:52;;;;;;;12.00;7.10;;;;;;;20.36;100.00;100255.02;106548;1254;74673;-86
2023/10/31 17:51:27;;;;;;;13.20;7.00;;;;;;;20.31;100.00;100254.72;106503;1259;63672;-85
2023/10/31 17:54:05;;;;;;;16.40;7.40;;;;;;;20.21;100.00;100250.77;106491;1253;61087;-86
2023/10/31 17:56:40;;;;;;;17.00;7.70;;;;;;;20.14;100.00;100255.00;106635;1253;74895;-86
2023/10/31 17:59:11;;;;;;;13.40;7.10;;;;;;;20.09;100.00;100248.88;106516;1254;70547;-87
2023/10/31 18:01:44;;;;;;;21.20;8.60;;;;;;;20.05;100.00;100255.09;106357;1253;73679;-87
2023/10/31 18:04:19;;;;;;;18.90;7.60;;;;;;;20.00;100.00;100255.82;106444;1257;64269;-87
2023/10/31 18:06:48;;;;;;;16.70;7.90;;;;;;;19.99;100.00;100260.21;106821;1254;62085;-87
2023/10/31 18:09:17;;;;;;;17.00;7.60;;;;;;;19.94;100.00;100265.22;106540;1257;75926;-87
2023/10/31 18:11:59;;;;;;;17.70;7.50;;;;;;;19.94;100.00;100264.09;106391;1254;69952;-86
2023/10/31 18:14:29;;;;;;;16.50;7.70;;;;;;;19.85;100.00;100262.39;106389;1254;74016;-86
2023/10/31 18:17:03;;;;;;;16.30;7.60;;;;;;;19.85;100.00;100268.06;107322;1256;62595;-87
2023/10/31 18:19:36;;;;;;;13.60;7.20;;;;;;;19.87;100.00;100262.74;106398;1254;60941;-86
2023/10/31 18:22:10;;;;;;;15.00;7.50;;;;;;;19.93;100.00;100263.51;106452;1253;75326;-86
2023/10/31 18:24:43;;;;;;;18.30;8.00;;;;;;;19.91;100.00;100266.13;106374;1254;69928;-86
2023/10/31 18:27:22;;;;;;;13.00;6.30;;;;;;;19.90;100.00;100262.00;107147;1259;72499;-87
2023/10/31 18:29:52;;;;;;;14.60;6.40;;;;;;;19.90;100.00;100260.58;106321;1256;61177;-85
2023/10/31 18:32:21;;;;;;;19.40;6.30;;;;;;;19.92;100.00;100263.46;106437;1256;62032;-85
2023/10/31 18:34:55;;;;;;;15.10;6.00;;;;;;;19.92;100.00;100261.40;106355;1253;74618;-85
2023/10/31 18:37:26;;;;;;;14.00;6.30;;;;;;;19.87;100.00;100258.33;107000;1254;69934;-87
2023/10/31 18:39:59;;;;;;;13.50;4.70;;;;;;;19.86;100.00;100258.46;106034;1262;75293;-87
2023/10/31 18:42:30;;;;;;;11.20;5.70;;;;;;;19.81;100.00;100259.73;106497;1254;61052;-87
2023/10/31 18:45:05;;;;;;;10.20;5.00;;;;;;;19.74;100.00;100252.63;106452;1256;61440;-87
2023/10/31 18:47:42;;;;;;;11.90;5.70;;;;;;;19.71;100.00;100246.51;106552;1254;76481;-85
2023/10/31 18:50:15;;;;;;;10.30;4.80;;;;;;;19.63;100.00;100242.71;106478;1253;70462;-85
2023/10/31 18:52:49;;;;;;;14.50;6.00;;;;;;;19.56;100.00;100247.63;106303;1256;74754;-86
2023/10/31 18:55:20;;;;;;;13.10;6.10;;;;;;;19.56;100.00;100245.08;107065;1254;61085;-86
2023/10/31 18:57:51;;;;;;;13.30;5.70;;;;;;;19.51;100.00;100246.37;106302;1257;60416;-86
2023/10/31 19:00:24;;;;;;;16.40;5.80;;;;;;;19.44;100.00;100239.32;106368;1254;77139;-86
2023/10/31 19:03:01;;;;;;;16.80;4.70;;;;;;;19.45;100.00;100229.85;106449;1253;68740;-86
2023/10/31 19:05:31;;;;;;;13.60;5.00;;;;;;;19.46;100.00;100229.79;107013;1253;74592;-86
